Time;durP1;ratioP1;P1;durP2;ratioP2;P2;SDS_P1;SDS_P2;PMS_P1;PMS_P2;Temp;Humidity;BMP_temperature;BMP_pressure;BME280_temperature;BME280_humidity;BME280_pressure;Samples;Min_cycle;Max_cycle;Signal;HPM_P1;HPM_P2
2023/08/30 00:01:46;;;;;;;20.85;12.85;;;;;;;15.88;91.73;99164.56;5116402;27;20841;-71
2023/08/30 00:04:11;;;;;;;18.42;13.48;;;;;;;15.87;91.66;99162.88;5103120;27;20461;-76
2023/08/30 00:06:37;;;;;;;20.50;14.32;;;;;;;15.86;91.64;99188.06;5095392;27;20051;-72
2023/08/30 00:09:02;;;;;;;18.67;13.63;;;;;;;15.86;91.61;99177.31;5095136;27;20501;-71
2023/08/30 00:11:30;;;;;;;25.48;13.50;;;;;;;15.85;91.54;99175.63;5076804;27;20035;-74
2023/08/30 00:14:03;;;;;;;18.40;12.40;;;;;;;15.87;91.68;99160.19;5059482;27;20047;-72
2023/08/30 00:16:28;;;;;;;17.75;12.10;;;;;;;15.84;91.48;99168.53;5076736;27;20055;-70
2023/08/30 00:18:53;;;;;;;15.85;11.25;;;;;;;15.83;91.65;99166.84;5076811;27;20046;-71
2023/08/30 00:21:18;;;;;;;19.25;12.23;;;;;;;15.82;91.74;99162.47;5109639;27;20050;-72
2023/08/30 00:23:44;;;;;;;16.50;12.00;;;;;;;15.81;91.78;99163.47;5115690;27;20039;-71
2023/08/30 00:26:09;;;;;;;18.52;12.15;;;;;;;15.79;91.40;99171.72;5115254;27;20039;-68
2023/08/30 00:28:34;;;;;;;17.95;11.55;;;;;;;15.80;91.51;99167.19;5115267;27;20042;-68
2023/08/30 00:31:00;;;;;;;20.35;12.07;;;;;;;15.78;91.51;99167.34;5093178;27;20053;-68
2023/08/30 00:33:25;;;;;;;17.58;11.73;;;;;;;15.77;91.92;99175.53;5114685;27;20039;-69
2023/08/30 00:35:58;;;;;;;21.52;11.95;;;;;;;15.79;91.97;99181.63;5096335;27;20055;-76
2023/08/30 00:38:23;;;;;;;15.10;10.77;;;;;;;15.75;91.95;99159.56;5115631;27;20042;-73
2023/08/30 00:40:48;;;;;;;15.98;10.32;;;;;;;15.75;91.95;99174.84;5108730;27;20437;-74
2023/08/30 00:43:14;;;;;;;15.38;11.40;;;;;;;15.73;91.74;99183.06;5097728;27;20034;-78
2023/08/30 00:45:40;;;;;;;17.40;13.48;;;;;;;15.74;91.69;99194.66;5096715;27;20043;-78
2023/08/30 00:48:06;;;;;;;19.33;13.20;;;;;;;15.74;91.70;99194.66;5084173;27;20055;-75
2023/08/30 00:50:32;;;;;;;19.50;13.05;;;;;;;15.72;91.50;99191.28;5111536;27;20042;-73
2023/08/30 00:52:57;;;;;;;18.42;12.27;;;;;;;15.72;91.57;99210.09;5115194;27;20035;-70
2023/08/30 00:55:22;;;;;;;16.88;11.95;;;;;;;15.73;91.48;99203.72;5095721;27;20051;-69
2023/08/30 00:57:48;;;;;;;17.17;11.73;;;;;;;15.72;91.30;99202.03;5114977;27;20042;-69
2023/08/30 01:00:13;;;;;;;15.35;11.40;;;;;;;15.72;91.25;99202.88;5096073;27;20042;-69
2023/08/30 01:02:39;;;;;;;20.35;12.85;;;;;;;15.71;91.14;99197.66;5095383;27;20041;-68
2023/08/30 01:05:05;;;;;;;17.75;12.15;;;;;;;15.70;90.81;99191.41;5077026;27;20152;-70
2023/08/30 01:07:30;;;;;;;16.17;10.80;;;;;;;15.71;90.95;99194.97;5114570;27;20515;-70
2023/08/30 01:09:56;;;;;;;15.30;11.40;;;;;;;15.69;90.93;99197.78;5114301;27;20062;-71
2023/08/30 01:12:33;;;;;;;16.67;11.45;;;;;;;15.73;90.85;99225.22;5114858;27;20042;-66
2023/08/30 01:15:13;;;;;;;15.32;10.18;;;;;;;15.76;90.64;99209.63;5114776;27;20042;-69
2023/08/30 01:17:41;;;;;;;15.90;11.45;;;;;;;15.69;90.43;99202.34;5114338;27;20525;-66
2023/08/30 01:20:41;;;;;;;19.08;11.55;;;;;;;15.66;90.15;99203.50;5113237;27;20627;-65
2023/08/30 01:23:05;;;;;;;14.10;10.13;;;;;;;15.66;89.96;99200.81;5111127;27;20053;-66
2023/08/30 01:25:45;;;;;;;17.73;11.77;;;;;;;15.65;89.35;99198.28;5062083;27;20287;-66
2023/08/30 01:28:11;;;;;;;16.10;11.98;;;;;;;15.64;89.20;99210.00;5085848;27;20054;-66
2023/08/30 01:30:41;;;;;;;16.05;11.35;;;;;;;15.63;89.44;99195.72;5084102;27;20050;-66
2023/08/30 01:33:08;;;;;;;16.40;11.38;;;;;;;15.64;89.36;99215.38;5103655;27;20871;-67
2023/08/30 01:35:36;;;;;;;15.98;10.80;;;;;;;15.60;88.79;99210.31;5104179;27;20055;-67
2023/08/30 01:38:04;;;;;;;23.35;12.15;;;;;;;15.59;88.88;99214.00;5084711;27;20480;-66
2023/08/30 01:40:32;;;;;;;17.30;12.90;;;;;;;15.59;88.56;99203.25;5085060;27;20468;-67
2023/08/30 01:42:58;;;;;;;17.40;12.55;;;;;;;15.57;88.43;99225.91;5083998;27;20034;-66
2023/08/30 01:45:24;;;;;;;18.90;13.63;;;;;;;15.53;88.25;99230.69;5084756;27;20039;-66
2023/08/30 01:47:52;;;;;;;17.60;13.23;;;;;;;15.52;88.21;99239.75;5094091;28;20035;-67
2023/08/30 01:50:19;;;;;;;17.13;13.45;;;;;;;15.52;87.86;99218.25;5105634;27;20050;-68
2023/08/30 01:52:45;;;;;;;23.67;15.43;;;;;;;15.51;88.14;99216.56;5114425;27;20449;-66
2023/08/30 01:55:13;;;;;;;21.88;15.30;;;;;;;15.50;88.20;99222.94;5113902;27;20622;-67
2023/08/30 01:57:38;;;;;;;19.42;14.65;;;;;;;15.49;87.96;99215.88;5115681;27;20035;-67
2023/08/30 02:00:05;;;;;;;18.20;13.43;;;;;;;15.47;87.92;99209.78;5094694;27;20049;-68
2023/08/30 02:02:42;;;;;;;16.95;13.73;;;;;;;15.46;88.09;99240.34;5118167;27;20373;-70
2023/08/30 02:05:08;;;;;;;18.55;14.75;;;;;;;15.47;88.24;99209.78;5079674;27;20042;-67
2023/08/30 02:08:04;;;;;;;19.20;15.05;;;;;;;15.53;88.38;99211.88;5117493;27;20057;-68
2023/08/30 02:10:40;;;;;;;20.20;14.38;;;;;;;15.52;88.30;99217.41;5099044;27;20041;-69
2023/08/30 02:13:06;;;;;;;19.33;14.23;;;;;;;15.48;88.61;99216.84;5117635;27;20042;-67
2023/08/30 02:15:33;;;;;;;19.38;14.45;;;;;;;15.47;88.38;99214.31;5117886;27;20054;-67
2023/08/30 02:17:59;;;;;;;20.92;15.57;;;;;;;15.44;88.22;99215.50;5117727;27;20051;-70
2023/08/30 02:20:25;;;;;;;21.25;14.93;;;;;;;15.44;88.37;99209.28;5099265;27;20492;-70
2023/08/30 02:22:50;;;;;;;17.70;14.00;;;;;;;15.45;88.21;99219.03;5098690;27;20050;-69
2023/08/30 02:25:15;;;;;;;22.30;16.40;;;;;;;15.43;88.02;99221.00;5117922;27;20739;-68
2023/08/30 02:27:40;;;;;;;21.77;15.40;;;;;;;15.41;88.00;99210.41;5118236;27;20038;-76
2023/08/30 02:30:07;;;;;;;20.85;15.98;;;;;;;15.39;88.23;99243.78;5100322;27;20087;-76
2023/08/30 02:32:33;;;;;;;22.23;15.32;;;;;;;15.39;88.13;99228.50;5099769;27;20030;-77
2023/08/30 02:34:58;;;;;;;23.70;15.82;;;;;;;15.35;88.11;99216.38;5116323;27;20752;-77
2023/08/30 02:37:24;;;;;;;20.40;15.40;;;;;;;15.36;87.95;99230.66;5118233;27;20038;-76
2023/08/30 02:39:50;;;;;;;27.00;18.08;;;;;;;15.32;88.22;99259.66;5098751;27;20050;-74
2023/08/30 02:42:15;;;;;;;23.08;15.82;;;;;;;15.32;88.41;99238.19;5116854;27;20055;-74
2023/08/30 02:44:40;;;;;;;23.70;16.50;;;;;;;15.31;88.54;99231.13;5117154;27;20038;-74
2023/08/30 02:47:07;;;;;;;22.13;16.65;;;;;;;15.33;88.46;99239.03;5117128;27;20794;-73
2023/08/30 02:49:32;;;;;;;22.30;16.02;;;;;;;15.34;88.50;99229.97;5116615;27;20074;-67
2023/08/30 02:51:58;;;;;;;19.80;14.48;;;;;;;15.34;88.50;99236.19;5075514;27;20469;-67
2023/08/30 02:54:23;;;;;;;21.30;15.73;;;;;;;15.35;88.47;99237.03;5116133;27;20484;-69
2023/08/30 02:56:48;;;;;;;23.25;15.95;;;;;;;15.34;88.23;99230.81;5098032;27;20038;-68
2023/08/30 02:59:14;;;;;;;18.77;13.43;;;;;;;15.33;87.97;99239.03;5083983;27;20046;-68
2023/08/30 03:01:39;;;;;;;19.83;14.70;;;;;;;15.33;88.01;99233.66;5097297;27;20873;-71
2023/08/30 03:04:05;;;;;;;19.50;13.90;;;;;;;15.33;88.31;99230.97;5095239;27;20038;-70
2023/08/30 03:06:32;;;;;;;22.83;15.65;;;;;;;15.34;88.38;99228.13;5114563;27;20504;-70
2023/08/30 03:08:59;;;;;;;21.60;13.32;;;;;;;15.34;88.62;99230.81;5094794;27;20489;-69
2023/08/30 03:11:24;;;;;;;18.75;13.65;;;;;;;15.35;87.94;99221.75;5095664;27;20047;-78
2023/08/30 03:13:54;;;;;;;19.60;13.80;;;;;;;15.37;88.51;99226.97;5078915;27;20050;-74
2023/08/30 03:16:20;;;;;;;18.95;14.38;;;;;;;15.38;88.30;99231.34;5095537;27;20050;-73
2023/08/30 03:18:46;;;;;;;20.13;14.07;;;;;;;15.39;88.31;99233.03;5100138;27;20049;-71
2023/08/30 03:21:12;;;;;;;20.27;13.60;;;;;;;15.40;88.02;99240.09;5098358;27;20054;-71
2023/08/30 03:23:38;;;;;;;18.73;13.45;;;;;;;15.41;87.80;99231.06;5098625;27;20055;-74
2023/08/30 03:26:15;;;;;;;19.60;14.18;;;;;;;15.45;88.10;99238.69;5099268;27;20042;-76
2023/08/30 03:28:41;;;;;;;17.17;12.85;;;;;;;15.44;87.80;99230.75;5112081;27;20049;-72
2023/08/30 03:31:13;;;;;;;18.63;13.85;;;;;;;15.52;87.69;99242.44;5067223;27;20417;-72
2023/08/30 03:33:41;;;;;;;17.60;13.20;;;;;;;15.52;87.10;99244.28;5074937;27;20070;-73
2023/08/30 03:36:09;;;;;;;20.70;14.85;;;;;;;15.53;87.34;99241.44;5097975;27;20045;-73
2023/08/30 03:38:34;;;;;;;16.83;12.65;;;;;;;15.56;87.17;99230.44;5080355;27;20412;-72
2023/08/30 03:40:59;;;;;;;18.13;12.68;;;;;;;15.56;86.94;99225.06;5115241;27;20042;-73
2023/08/30 03:43:25;;;;;;;17.50;13.35;;;;;;;15.55;86.90;99228.75;5097203;27;20051;-72
2023/08/30 03:45:50;;;;;;;19.02;12.95;;;;;;;15.55;86.80;99226.06;5079994;27;20489;-73
2023/08/30 03:48:17;;;;;;;19.35;13.63;;;;;;;15.56;86.71;99226.91;5097428;27;20053;-74
2023/08/30 03:50:42;;;;;;;17.63;13.05;;;;;;;15.59;86.88;99229.25;5098004;27;20399;-75
2023/08/30 03:53:07;;;;;;;19.55;11.70;;;;;;;15.64;86.59;99232.34;5116215;27;20043;-73
2023/08/30 03:55:33;;;;;;;14.93;10.90;;;;;;;15.68;86.59;99233.75;5080163;27;20132;-74
2023/08/30 03:57:59;;;;;;;17.38;11.20;;;;;;;15.71;86.14;99227.19;5116179;27;20039;-73
2023/08/30 04:00:24;;;;;;;15.25;11.43;;;;;;;15.73;85.85;99234.13;5097909;27;20050;-73
2023/08/30 04:02:49;;;;;;;14.85;11.27;;;;;;;15.76;85.98;99235.66;5097383;27;20049;-73
2023/08/30 04:05:15;;;;;;;20.83;13.05;;;;;;;15.81;85.66;99233.34;5079686;27;20057;-74
2023/08/30 04:07:40;;;;;;;16.70;11.80;;;;;;;15.80;85.38;99263.94;5093691;27;20059;-73
2023/08/30 04:10:07;;;;;;;18.23;11.57;;;;;;;15.85;85.41;99234.75;5093836;27;20042;-74
2023/08/30 04:12:34;;;;;;;18.90;11.20;;;;;;;15.89;85.15;99242.38;5095129;27;20035;-74
2023/08/30 04:15:01;;;;;;;18.80;10.32;;;;;;;15.96;84.97;99237.22;5076085;27;20039;-75
2023/08/30 04:17:27;;;;;;;18.75;11.02;;;;;;;15.99;83.94;99231.53;5095861;27;20061;-74
2023/08/30 04:19:53;;;;;;;20.10;11.07;;;;;;;16.02;84.26;99231.22;5093225;27;20036;-73
2023/08/30 04:22:18;;;;;;;13.65;10.73;;;;;;;16.08;84.32;99246.75;5085056;28;20062;-72
2023/08/30 04:24:46;;;;;;;15.77;10.77;;;;;;;16.16;84.25;99233.34;5062142;28;20062;-73
2023/08/30 04:27:11;;;;;;;13.82;10.52;;;;;;;16.23;83.88;99239.81;5075997;28;20070;-75
2023/08/30 04:29:37;;;;;;;16.48;10.50;;;;;;;16.29;83.46;99241.03;5060073;28;20070;-76
2023/08/30 04:32:02;;;;;;;15.98;11.05;;;;;;;16.34;83.01;99246.81;5076177;28;20066;-75
2023/08/30 04:34:29;;;;;;;15.00;10.35;;;;;;;16.40;82.93;99230.03;5092370;27;20042;-75
2023/08/30 04:36:54;;;;;;;16.67;10.73;;;;;;;16.52;82.80;99244.06;5094700;27;20385;-75
2023/08/30 04:39:20;;;;;;;17.05;11.52;;;;;;;16.62;82.48;99266.38;5094548;27;20532;-75
2023/08/30 04:41:46;;;;;;;16.80;10.90;;;;;;;16.86;82.02;99244.16;5076748;27;20058;-73
2023/08/30 04:44:12;;;;;;;21.63;10.50;;;;;;;17.09;80.97;99237.22;5093616;27;20720;-73
2023/08/30 04:46:37;;;;;;;15.93;9.60;;;;;;;17.31;79.60;99257.34;5094771;27;20050;-74
2023/08/30 04:49:03;;;;;;;14.65;9.70;;;;;;;17.41;78.56;99263.47;5093333;27;20050;-73
2023/08/30 04:51:28;;;;;;;13.85;9.45;;;;;;;17.49;77.09;99241.94;5058729;28;20047;-73
2023/08/30 04:53:55;;;;;;;10.57;8.45;;;;;;;17.51;76.45;99231.81;5055695;28;20063;-76
2023/08/30 04:56:20;;;;;;;10.93;8.30;;;;;;;17.48;75.75;99248.34;5055460;28;20054;-74
2023/08/30 04:58:45;;;;;;;12.63;8.60;;;;;;;17.48;75.30;99240.25;5055436;28;20044;-74
2023/08/30 05:01:13;;;;;;;11.32;8.15;;;;;;;17.58;75.15;99243.66;5072973;28;20714;-74
2023/08/30 05:03:40;;;;;;;11.57;8.90;;;;;;;17.82;74.67;99233.97;5073981;28;20067;-76
2023/08/30 05:06:08;;;;;;;10.48;7.93;;;;;;;18.32;74.30;99242.78;5074374;28;20051;-75
2023/08/30 05:08:33;;;;;;;13.18;6.95;;;;;;;18.97;72.22;99226.50;5087578;27;20043;-76
2023/08/30 05:10:59;;;;;;;10.10;6.85;;;;;;;19.59;70.19;99237.47;5063589;27;20042;-76
2023/08/30 05:13:24;;;;;;;10.48;7.10;;;;;;;20.14;67.77;99244.56;5097525;27;20038;-75
2023/08/30 05:15:50;;;;;;;19.17;7.80;;;;;;;20.43;65.72;99233.03;5076728;27;20043;-75
2023/08/30 05:18:16;;;;;;;10.43;6.80;;;;;;;20.61;64.55;99244.38;5114163;27;20412;-77
2023/08/30 05:20:42;;;;;;;11.20;6.47;;;;;;;20.54;63.72;99254.28;5096151;27;20509;-76
2023/08/30 05:23:09;;;;;;;10.50;6.53;;;;;;;20.28;63.17;99250.03;5078308;27;20046;-75
2023/08/30 05:25:34;;;;;;;8.82;6.72;;;;;;;20.02;62.74;99233.31;5095760;27;20034;-76
2023/08/30 05:28:01;;;;;;;9.88;6.90;;;;;;;19.80;63.24;99234.13;5114747;27;20350;-75
2023/08/30 05:30:26;;;;;;;8.77;6.10;;;;;;;19.59;63.77;99226.66;5097658;27;20141;-75
2023/08/30 05:32:54;;;;;;;12.90;6.50;;;;;;;19.31;64.53;99225.38;5060975;27;20073;-76
2023/08/30 05:35:48;;;;;;;13.02;7.72;;;;;;;19.04;64.66;99227.53;5018301;28;20410;-75
2023/08/30 05:38:40;;;;;;;11.52;7.53;;;;;;;18.82;64.69;99223.72;4997832;28;20121;-76
2023/08/30 05:41:24;;;;;;;11.32;7.78;;;;;;;18.82;65.57;99231.81;5030876;28;20040;-75
2023/08/30 05:43:50;;;;;;;9.15;6.78;;;;;;;19.21;65.06;99217.50;5031739;28;20048;-75
2023/08/30 05:46:16;;;;;;;11.18;7.32;;;;;;;19.71;64.35;99200.88;5030814;28;20142;-76
2023/08/30 05:48:41;;;;;;;8.82;6.57;;;;;;;20.35;62.83;99211.41;5030900;28;20051;-76
2023/08/30 05:51:07;;;;;;;10.27;7.07;;;;;;;21.28;60.24;99225.38;5013696;28;20044;-75
2023/08/30 05:53:32;;;;;;;8.93;6.70;;;;;;;22.09;57.19;99218.88;4997514;28;20097;-75
2023/08/30 05:55:58;;;;;;;9.35;6.57;;;;;;;22.75;54.61;99214.88;5031630;28;20037;-76
2023/08/30 05:58:24;;;;;;;8.55;7.00;;;;;;;23.47;52.59;99230.78;4998309;28;20056;-75
2023/08/30 06:00:49;;;;;;;8.55;6.47;;;;;;;24.17;50.53;99224.09;5031409;28;20051;-76
2023/08/30 06:03:15;;;;;;;14.40;6.78;;;;;;;24.68;48.66;99229.00;5031219;28;20518;-76
2023/08/30 06:05:40;;;;;;;13.68;7.18;;;;;;;24.83;47.46;99226.88;5014685;28;20049;-77
2023/08/30 06:08:05;;;;;;;12.80;7.10;;;;;;;25.13;46.79;99251.84;4997211;28;20059;-76
2023/08/30 06:10:30;;;;;;;9.95;6.25;;;;;;;25.20;46.73;99240.91;5032264;28;20051;-77
2023/08/30 06:12:56;;;;;;;9.05;7.00;;;;;;;25.23;46.38;99245.94;5097274;27;20393;-78
2023/08/30 06:15:21;;;;;;;13.20;6.53;;;;;;;24.78;47.00;99253.13;5098151;27;20051;-77
2023/08/30 06:17:46;;;;;;;11.73;6.80;;;;;;;24.08;48.37;99249.03;5097808;27;20042;-77
2023/08/30 06:20:12;;;;;;;9.75;6.78;;;;;;;23.28;49.67;99263.31;5117693;27;20051;-76
2023/08/30 06:22:37;;;;;;;9.65;6.05;;;;;;;22.59;51.45;99231.44;5117775;27;20047;-78
2023/08/30 06:25:04;;;;;;;14.63;6.72;;;;;;;22.05;52.61;99240.13;5099891;27;20081;-78
2023/08/30 06:27:30;;;;;;;13.80;7.30;;;;;;;21.75;53.57;99233.09;5116627;27;20119;-77
2023/08/30 06:29:55;;;;;;;10.38;6.80;;;;;;;21.55;54.30;99234.72;5116990;27;20049;-74
2023/08/30 06:32:20;;;;;;;10.98;6.47;;;;;;;21.42;54.64;99226.41;5115191;27;20496;-75
2023/08/30 06:34:45;;;;;;;11.55;7.65;;;;;;;21.36;55.04;99234.25;5079094;27;20051;-76
2023/08/30 06:37:11;;;;;;;14.48;7.28;;;;;;;21.31;55.44;99252.97;5115462;27;20058;-75
2023/08/30 06:39:36;;;;;;;10.75;6.80;;;;;;;21.52;55.08;99244.06;5096565;27;20047;-78
2023/08/30 06:42:03;;;;;;;8.27;6.03;;;;;;;21.74;54.74;99221.38;5095947;27;20050;-75
2023/08/30 06:44:29;;;;;;;7.10;5.65;;;;;;;21.88;54.13;99233.25;5116248;27;20480;-76
2023/08/30 06:46:54;;;;;;;7.78;5.50;;;;;;;21.84;53.76;99233.81;5119042;27;20058;-74
2023/08/30 06:49:20;;;;;;;8.25;5.50;;;;;;;21.82;53.51;99228.56;5099695;27;20057;-75
2023/08/30 06:51:45;;;;;;;7.80;6.00;;;;;;;22.09;53.24;99246.84;5118563;27;20107;-75
2023/08/30 06:54:10;;;;;;;7.78;5.65;;;;;;;22.24;52.38;99235.91;5099478;27;20043;-74
2023/08/30 06:56:35;;;;;;;8.65;5.90;;;;;;;22.18;51.83;99239.41;5119030;27;20523;-76
2023/08/30 06:59:00;;;;;;;10.02;5.72;;;;;;;22.20;51.96;99241.94;5100252;27;20042;-74
2023/08/30 07:01:25;;;;;;;8.25;5.15;;;;;;;22.02;52.28;99251.34;5100438;27;20035;-77
2023/08/30 07:03:51;;;;;;;6.50;5.30;;;;;;;21.72;52.49;99223.44;5120108;27;20388;-77
2023/08/30 07:06:16;;;;;;;13.02;6.53;;;;;;;21.34;52.96;99230.88;5083912;27;20400;-77
2023/08/30 07:08:41;;;;;;;11.13;6.20;;;;;;;21.09;54.24;99239.50;5122494;27;20050;-77
2023/08/30 07:11:06;;;;;;;11.15;5.38;;;;;;;20.93;54.75;99259.47;5102310;27;20046;-78
2023/08/30 07:13:31;;;;;;;9.48;6.22;;;;;;;20.90;55.33;99179.38;5120750;27;20038;-78
2023/08/30 07:15:57;;;;;;;10.35;5.95;;;;;;;21.00;55.53;99249.56;5121026;27;20357;-77
2023/08/30 07:18:22;;;;;;;8.90;6.18;;;;;;;21.06;55.32;99247.97;5120684;27;20393;-77
2023/08/30 07:20:47;;;;;;;11.35;7.25;;;;;;;21.00;55.38;99252.25;5102108;27;20054;-77
2023/08/30 07:23:12;;;;;;;8.77;6.22;;;;;;;21.19;55.04;99259.06;5102004;27;20053;-77
2023/08/30 07:25:38;;;;;;;10.23;5.72;;;;;;;22.28;53.80;99277.94;5101917;27;20050;-77
2023/08/30 07:28:04;;;;;;;9.77;5.85;;;;;;;23.02;51.98;99253.97;5120726;27;20528;-76
2023/08/30 07:30:30;;;;;;;8.38;5.82;;;;;;;23.10;50.63;99267.41;5120432;27;20507;-77
2023/08/30 07:32:55;;;;;;;8.15;6.10;;;;;;;22.91;51.15;99250.97;5101112;27;20542;-76
2023/08/30 07:35:20;;;;;;;9.18;6.00;;;;;;;22.63;50.87;99248.19;5101755;27;20039;-77
2023/08/30 07:37:46;;;;;;;10.63;6.28;;;;;;;22.23;51.76;99255.16;5101842;27;20046;-79
2023/08/30 07:40:12;;;;;;;9.88;5.53;;;;;;;21.86;52.60;99250.75;5102286;27;20038;-77
2023/08/30 07:42:37;;;;;;;8.75;6.05;;;;;;;21.53;53.35;99242.19;5120488;27;20476;-76
2023/08/30 07:45:04;;;;;;;14.30;5.72;;;;;;;21.62;53.34;99238.34;5119892;27;20051;-78
2023/08/30 07:47:32;;;;;;;7.55;5.45;;;;;;;21.85;53.01;99240.91;5102377;27;20046;-78
2023/08/30 07:49:58;;;;;;;11.07;4.85;;;;;;;22.06;52.68;99241.81;5119761;27;20038;-77
2023/08/30 07:52:23;;;;;;;7.80;5.47;;;;;;;22.35;52.19;99268.00;5119304;27;20042;-76
2023/08/30 07:54:48;;;;;;;9.20;5.97;;;;;;;22.88;51.26;99240.47;5117086;27;20436;-77
2023/08/30 07:57:14;;;;;;;7.00;4.80;;;;;;;23.12;50.41;99237.28;5099367;27;20050;-76
2023/08/30 07:59:39;;;;;;;8.88;4.85;;;;;;;23.70;49.52;99244.06;5117554;27;20045;-76
2023/08/30 08:02:07;;;;;;;9.13;5.43;;;;;;;24.42;47.14;99246.19;5117629;27;20038;-74
2023/08/30 08:04:33;;;;;;;7.15;5.15;;;;;;;25.02;45.59;99243.47;5117408;27;20042;-74
2023/08/30 08:06:58;;;;;;;5.57;4.40;;;;;;;26.31;44.70;99236.88;5117227;27;20062;-75
2023/08/30 08:09:23;;;;;;;9.23;5.60;;;;;;;28.24;41.48;99242.88;5117394;27;20042;-76
2023/08/30 08:11:49;;;;;;;7.93;5.20;;;;;;;29.40;37.84;99250.47;5098036;27;20480;-78
2023/08/30 08:14:14;;;;;;;6.55;4.80;;;;;;;29.13;37.38;99255.56;5081051;27;20046;-75
2023/08/30 08:16:40;;;;;;;5.78;4.85;;;;;;;29.01;37.97;99246.50;5117666;27;20451;-74
2023/08/30 08:19:06;;;;;;;11.52;5.90;;;;;;;29.47;37.04;99242.06;5098990;27;20049;-75
2023/08/30 08:21:32;;;;;;;8.35;4.65;;;;;;;29.98;35.84;99259.66;5117374;27;20038;-75
2023/08/30 08:23:57;;;;;;;9.10;6.00;;;;;;;30.24;34.81;99243.44;5097928;27;20054;-74
2023/08/30 08:26:22;;;;;;;9.68;5.53;;;;;;;30.86;33.87;99251.66;5117463;27;20042;-76
2023/08/30 08:28:47;;;;;;;11.70;5.50;;;;;;;31.93;32.12;99240.28;5118174;27;20057;-76
2023/08/30 08:31:13;;;;;;;8.20;5.43;;;;;;;33.03;30.55;99249.09;5099917;27;20050;-77
2023/08/30 08:33:39;;;;;;;9.63;5.38;;;;;;;33.19;29.96;99270.16;5082851;27;20043;-77
2023/08/30 08:36:04;;;;;;;7.20;5.15;;;;;;;33.18;29.97;99254.72;5099426;27;20042;-76
2023/08/30 08:38:29;;;;;;;7.68;5.40;;;;;;;33.81;29.05;99255.66;5100088;27;20042;-78
2023/08/30 08:41:03;;;;;;;7.55;5.70;;;;;;;34.54;28.86;99248.94;5100017;27;20065;-78
2023/08/30 08:43:29;;;;;;;7.22;5.70;;;;;;;34.15;28.25;99250.53;5119100;27;20388;-78
2023/08/30 08:45:59;;;;;;;10.00;6.35;;;;;;;34.73;27.92;99253.94;5119129;27;20480;-78
2023/08/30 08:48:25;;;;;;;8.32;5.50;;;;;;;35.89;26.91;99264.88;5100568;27;20054;-80
2023/08/30 08:50:51;;;;;;;7.55;5.43;;;;;;;35.98;26.17;99251.25;5100538;27;20069;-79
2023/08/30 08:53:16;;;;;;;9.27;6.47;;;;;;;35.71;26.12;99246.06;5065071;27;20043;-76
2023/08/30 08:55:44;;;;;;;8.35;6.05;;;;;;;35.91;26.02;99251.53;5118039;27;20043;-76
2023/08/30 08:58:11;;;;;;;9.25;6.22;;;;;;;36.62;25.54;99261.41;5099677;27;20058;-78
2023/08/30 09:00:37;;;;;;;8.23;5.90;;;;;;;37.38;24.99;99269.13;5118288;27;20401;-78
2023/08/30 09:03:05;;;;;;;7.57;6.07;;;;;;;37.13;24.83;99261.03;5095916;27;20054;-79
2023/08/30 09:05:31;;;;;;;8.93;6.03;;;;;;;36.84;25.23;99269.31;5079131;27;20058;-78
2023/08/30 09:07:56;;;;;;;7.03;6.32;;;;;;;36.39;25.43;99251.84;5096840;27;20070;-78
2023/08/30 09:10:22;;;;;;;10.93;5.55;;;;;;;35.70;26.09;99272.13;5098146;27;20065;-79
2023/08/30 09:12:47;;;;;;;7.88;6.18;;;;;;;35.51;26.03;99269.16;5096740;27;20039;-79
2023/08/30 09:15:13;;;;;;;8.18;6.20;;;;;;;34.87;26.35;99255.94;5096256;27;20058;-79
2023/08/30 09:17:39;;;;;;;10.35;7.25;;;;;;;33.78;27.16;99256.19;5099187;27;20066;-77
2023/08/30 09:20:12;;;;;;;10.50;7.35;;;;;;;33.03;28.21;99273.94;5122289;27;20038;-79
2023/08/30 09:22:42;;;;;;;15.85;7.75;;;;;;;32.39;28.86;99277.47;5123842;27;20046;-79
2023/08/30 09:25:23;;;;;;;8.65;6.90;;;;;;;31.51;29.62;99269.44;5125541;27;20035;-78
2023/08/30 09:27:49;;;;;;;10.52;6.82;;;;;;;30.90;30.44;99274.88;5132102;27;20038;-78
2023/08/30 09:30:14;;;;;;;15.25;6.93;;;;;;;30.35;31.17;99276.63;5109238;27;20039;-79
2023/08/30 09:32:41;;;;;;;9.05;6.80;;;;;;;29.40;31.91;99282.56;5129732;27;20047;-77
2023/08/30 09:35:07;;;;;;;9.95;8.07;;;;;;;27.98;34.41;99287.94;5121033;27;20408;-81
2023/08/30 09:37:33;;;;;;;12.25;7.15;;;;;;;26.97;36.52;99313.00;5100778;27;20039;-80
2023/08/30 09:39:58;;;;;;;12.57;6.65;;;;;;;26.21;37.61;99307.56;5082263;27;20073;-78
2023/08/30 09:42:23;;;;;;;11.57;6.55;;;;;;;25.44;38.87;99303.00;5099676;27;20118;-79
2023/08/30 09:44:48;;;;;;;11.35;6.00;;;;;;;24.87;40.48;99293.59;5118131;27;20046;-78
2023/08/30 09:47:15;;;;;;;11.20;6.80;;;;;;;24.51;41.50;99293.13;5100285;27;20050;-81
2023/08/30 09:49:45;;;;;;;13.38;6.35;;;;;;;24.38;42.65;99331.28;5100793;27;20046;-79
2023/08/30 09:52:14;;;;;;;12.05;6.18;;;;;;;24.45;42.77;99311.19;5119451;27;20038;-80
2023/08/30 09:54:45;;;;;;;12.45;5.88;;;;;;;24.85;42.27;99333.00;5100313;27;20038;-80
2023/08/30 09:57:10;;;;;;;11.40;5.72;;;;;;;25.13;41.92;99313.75;5100178;27;20053;-79
2023/08/30 09:59:38;;;;;;;12.07;5.55;;;;;;;25.41;41.43;99300.69;5083111;27;20496;-78
2023/08/30 10:02:04;;;;;;;14.25;7.15;;;;;;;25.51;40.94;99312.00;5101151;27;20039;-80
2023/08/30 10:04:31;;;;;;;9.98;6.43;;;;;;;25.60;41.09;99321.69;5079542;28;20062;-79
2023/08/30 10:06:57;;;;;;;9.52;5.15;;;;;;;25.98;40.84;99307.25;5113224;27;20063;-75
2023/08/30 10:09:24;;;;;;;9.27;6.30;;;;;;;26.39;40.17;99326.84;5096373;27;20047;-76
2023/08/30 10:11:50;;;;;;;12.15;6.15;;;;;;;26.76;39.42;99310.59;5095966;27;20127;-78
2023/08/30 10:14:17;;;;;;;11.43;6.80;;;;;;;26.52;38.95;99304.06;5111802;27;20863;-77
2023/08/30 10:16:45;;;;;;;12.52;7.38;;;;;;;26.09;39.74;99330.31;5116029;27;20770;-77
2023/08/30 10:19:17;;;;;;;8.35;5.80;;;;;;;25.56;40.08;99303.19;5117864;27;20443;-76
2023/08/30 10:21:47;;;;;;;12.93;6.38;;;;;;;24.94;42.28;99310.00;5083856;27;20046;-76
2023/08/30 10:24:19;;;;;;;10.60;6.22;;;;;;;24.43;42.69;99326.03;5100439;27;20050;-76
2023/08/30 10:26:46;;;;;;;9.70;6.60;;;;;;;24.08;43.11;99315.22;5098049;27;20058;-77
2023/08/30 10:29:14;;;;;;;10.75;6.70;;;;;;;23.87;43.65;99301.75;5100829;27;20058;-75
2023/08/30 10:31:40;;;;;;;9.90;6.47;;;;;;;23.78;43.82;99298.38;5097817;27;20037;-76
2023/08/30 10:34:19;;;;;;;12.88;5.93;;;;;;;23.79;44.44;99299.22;5098522;27;20035;-75
2023/08/30 10:36:44;;;;;;;8.40;6.18;;;;;;;23.58;44.65;99294.72;5082662;27;20046;-79
2023/08/30 10:39:14;;;;;;;11.95;6.72;;;;;;;23.50;44.91;99305.75;5120680;27;20057;-78
2023/08/30 10:41:57;;;;;;;12.65;6.68;;;;;;;23.43;45.19;99305.69;5118922;27;20105;-79
2023/08/30 10:44:23;;;;;;;11.25;7.05;;;;;;;23.05;45.25;99301.66;5100984;27;20047;-77
2023/08/30 10:46:55;;;;;;;12.32;7.47;;;;;;;22.97;45.87;99305.38;5102407;27;20047;-77
2023/08/30 10:49:22;;;;;;;9.35;6.13;;;;;;;22.83;45.99;99324.47;5099554;27;20049;-79
2023/08/30 10:52:00;;;;;;;17.13;6.72;;;;;;;22.88;45.84;99300.28;5103056;27;20043;-78
2023/08/30 10:54:36;;;;;;;8.77;6.43;;;;;;;22.69;46.32;99307.16;5120403;27;20060;-77
2023/08/30 10:57:02;;;;;;;12.43;6.60;;;;;;;22.36;46.99;99307.69;5120804;27;20041;-77
2023/08/30 10:59:29;;;;;;;13.38;6.10;;;;;;;22.22;47.14;99305.91;5087999;27;20054;-77
2023/08/30 11:01:58;;;;;;;10.40;6.03;;;;;;;22.04;48.33;99319.88;5119400;27;20046;-77
2023/08/30 11:04:24;;;;;;;9.25;6.75;;;;;;;21.93;49.25;99328.47;5098339;27;20049;-73
2023/08/30 11:06:51;;;;;;;14.02;6.75;;;;;;;21.84;48.87;99307.91;5117563;27;20057;-72
2023/08/30 11:09:18;;;;;;;11.90;6.38;;;;;;;21.65;49.20;99301.22;5118189;27;20049;-74
2023/08/30 11:11:45;;;;;;;14.25;7.60;;;;;;;21.50;49.45;99308.50;5118297;27;20043;-75
2023/08/30 11:14:10;;;;;;;13.73;7.07;;;;;;;21.37;50.01;99302.91;5118348;27;20038;-76
2023/08/30 11:16:36;;;;;;;14.98;8.45;;;;;;;21.26;50.26;99306.91;5117649;27;20380;-75
2023/08/30 11:19:08;;;;;;;11.15;6.07;;;;;;;21.19;50.72;99330.38;5118306;27;20049;-76
2023/08/30 11:21:36;;;;;;;13.30;7.32;;;;;;;21.12;50.98;99333.97;5078656;27;20049;-76
2023/08/30 11:24:03;;;;;;;11.90;6.95;;;;;;;21.10;51.83;99312.50;5098871;27;20046;-72